sensor_id;sensor_type;location;lat;lon;timestamp;pressure;altitude;pressure_sealevel;temperature;humidity
52105;BME280;38103;42.776;23.112;2022-12-18T00:01:14;94682.88;;;3.08;100.00
52105;BME280;38103;42.776;23.112;2022-12-18T00:03:40;94677.47;;;3.10;100.00
52105;BME280;38103;42.776;23.112;2022-12-18T00:06:06;94685.63;;;3.15;100.00
52105;BME280;38103;42.776;23.112;2022-12-18T00:08:31;94683.38;;;3.04;100.00
52105;BME280;38103;42.776;23.112;2022-12-18T00:11:06;94682.75;;;3.01;100.00
52105;BME280;38103;42.776;23.112;2022-12-18T00:13:31;94673.94;;;2.94;100.00
52105;BME280;38103;42.776;23.112;2022-12-18T00:16:05;94689.28;;;2.89;100.00
52105;BME280;38103;42.776;23.112;2022-12-18T00:18:31;94674.00;;;2.77;100.00
52105;BME280;38103;42.776;23.112;2022-12-18T00:21:01;94685.72;;;2.82;100.00
52105;BME280;38103;42.776;23.112;2022-12-18T00:23:27;94684.13;;;2.81;100.00
52105;BME280;38103;42.776;23.112;2022-12-18T00:25:53;94694.72;;;2.79;100.00
52105;BME280;38103;42.776;23.112;2022-12-18T00:28:19;94705.34;;;2.69;100.00
52105;BME280;38103;42.776;23.112;2022-12-18T00:30:44;94715.78;;;2.61;100.00
52105;BME280;38103;42.776;23.112;2022-12-18T00:33:09;94715.78;;;2.61;100.00
52105;BME280;38103;42.776;23.112;2022-12-18T00:35:35;94718.06;;;2.64;100.00
52105;BME280;38103;42.776;23.112;2022-12-18T00:38:00;94718.75;;;2.58;100.00
52105;BME280;38103;42.776;23.112;2022-12-18T00:40:25;94706.03;;;2.38;100.00
52105;BME280;38103;42.776;23.112;2022-12-18T00:42:51;94727.88;;;2.45;100.00
52105;BME280;38103;42.776;23.112;2022-12-18T00:45:24;94723.00;;;2.42;100.00
52105;BME280;38103;42.776;23.112;2022-12-18T00:47:49;94678.66;;;2.08;100.00
52105;BME280;38103;42.776;23.112;2022-12-18T00:50:15;94729.84;;;2.26;100.00
52105;BME280;38103;42.776;23.112;2022-12-18T00:52:40;94738.97;;;2.22;100.00
52105;BME280;38103;42.776;23.112;2022-12-18T00:55:06;94736.06;;;2.33;100.00
52105;BME280;38103;42.776;23.112;2022-12-18T00:57:32;94741.91;;;2.36;100.00
52105;BME280;38103;42.776;23.112;2022-12-18T00:59:57;94743.56;;;2.37;100.00
52105;BME280;38103;42.776;23.112;2022-12-18T01:02:23;94734.09;;;2.36;100.00
52105;BME280;38103;42.776;23.112;2022-12-18T01:04:48;94737.19;;;2.31;100.00
52105;BME280;38103;42.776;23.112;2022-12-18T01:07:13;94737.84;;;2.33;100.00
52105;BME280;38103;42.776;23.112;2022-12-18T01:09:39;94738.66;;;2.25;100.00
52105;BME280;38103;42.776;23.112;2022-12-18T01:12:04;94742.72;;;2.28;100.00
52105;BME280;38103;42.776;23.112;2022-12-18T01:14:30;94747.47;;;2.24;100.00
52105;BME280;38103;42.776;23.112;2022-12-18T01:16:55;94753.31;;;2.18;100.00
52105;BME280;38103;42.776;23.112;2022-12-18T01:19:22;94747.59;;;2.14;100.00
52105;BME280;38103;42.776;23.112;2022-12-18T01:21:49;94753.00;;;2.21;100.00
52105;BME280;38103;42.776;23.112;2022-12-18T01:24:14;94756.25;;;2.15;100.00
52105;BME280;38103;42.776;23.112;2022-12-18T01:26:40;94758.53;;;2.18;100.00
52105;BME280;38103;42.776;23.112;2022-12-18T01:29:05;94752.81;;;2.14;100.00
52105;BME280;38103;42.776;23.112;2022-12-18T01:31:33;94703.09;;;1.82;100.00
52105;BME280;38103;42.776;23.112;2022-12-18T01:34:00;94757.72;;;2.17;100.00
52105;BME280;38103;42.776;23.112;2022-12-18T01:36:29;94758.53;;;2.18;100.00
52105;BME280;38103;42.776;23.112;2022-12-18T01:38:55;94758.53;;;2.18;100.00
52105;BME280;38103;42.776;23.112;2022-12-18T01:41:27;94753.31;;;2.18;100.00
52105;BME280;38103;42.776;23.112;2022-12-18T01:47:19;94758.69;;;2.08;100.00
52105;BME280;38103;42.776;23.112;2022-12-18T01:49:45;94761.78;;;2.03;100.00
52105;BME280;38103;42.776;23.112;2022-12-18T01:52:11;94766.66;;;2.06;100.00
52105;BME280;38103;42.776;23.112;2022-12-18T01:54:36;94770.91;;;1.99;100.00
52105;BME280;38103;42.776;23.112;2022-12-18T01:57:02;94773.16;;;1.94;100.00
52105;BME280;38103;42.776;23.112;2022-12-18T01:59:27;94770.91;;;1.91;100.00
52105;BME280;38103;42.776;23.112;2022-12-18T02:01:54;94773.81;;;1.87;100.00
52105;BME280;38103;42.776;23.112;2022-12-18T02:04:25;94782.28;;;1.81;100.00
52105;BME280;38103;42.776;23.112;2022-12-18T02:06:56;94779.97;;;1.78;100.00
52105;BME280;38103;42.776;23.112;2022-12-18T02:09:33;94785.19;;;1.78;100.00
52105;BME280;38103;42.776;23.112;2022-12-18T02:17:28;94791.06;;;1.72;100.00
52105;BME280;38103;42.776;23.112;2022-12-18T02:27:50;94792.25;;;1.94;100.00
52105;BME280;38103;42.776;23.112;2022-12-18T02:30:17;94786.56;;;1.99;100.00
52105;BME280;38103;42.776;23.112;2022-12-18T02:32:48;94784.28;;;1.96;100.00
52105;BME280;38103;42.776;23.112;2022-12-18T02:35:20;94783.25;;;1.88;100.00
52105;BME280;38103;42.776;23.112;2022-12-18T02:37:48;94796.31;;;1.80;100.00
52105;BME280;38103;42.776;23.112;2022-12-18T02:40:15;94799.53;;;1.74;100.00
52105;BME280;38103;42.776;23.112;2022-12-18T02:42:42;94760.34;;;1.49;100.00
52105;BME280;38103;42.776;23.112;2022-12-18T02:45:08;94799.00;;;1.70;100.00
52105;BME280;38103;42.776;23.112;2022-12-18T02:47:37;94796.72;;;1.59;100.00
52105;BME280;38103;42.776;23.112;2022-12-18T02:50:33;94805.50;;;1.58;100.00
52105;BME280;38103;42.776;23.112;2022-12-18T02:56:42;94803.22;;;1.54;100.00
52105;BME280;38103;42.776;23.112;2022-12-18T02:59:18;94798.28;;;1.43;100.00
52105;BME280;38103;42.776;23.112;2022-12-18T03:01:56;94749.28;;;1.11;100.00
52105;BME280;38103;42.776;23.112;2022-12-18T03:07:23;94812.47;;;1.49;100.00
52105;BME280;38103;42.776;23.112;2022-12-18T03:09:53;94815.84;;;1.41;100.00
52105;BME280;38103;42.776;23.112;2022-12-18T03:14:56;94813.09;;;1.42;100.00
52105;BME280;38103;42.776;23.112;2022-12-18T03:17:25;94829.03;;;1.39;100.00
52105;BME280;38103;42.776;23.112;2022-12-18T03:19:52;94823.00;;;1.39;100.00
52105;BME280;38103;42.776;23.112;2022-12-18T03:22:23;94827.59;;;1.45;100.00
52105;BME280;38103;42.776;23.112;2022-12-18T03:24:50;94824.16;;;1.44;100.00
52105;BME280;38103;42.776;23.112;2022-12-18T03:27:18;94835.88;;;1.40;100.00
52105;BME280;38103;42.776;23.112;2022-12-18T03:29:49;94845.28;;;1.33;100.00
52105;BME280;38103;42.776;23.112;2022-12-18T03:32:28;94817.00;;;1.11;100.00
52105;BME280;38103;42.776;23.112;2022-12-18T03:34:59;94854.94;;;1.41;100.00
52105;BME280;38103;42.776;23.112;2022-12-18T03:37:26;94851.00;;;1.37;100.00
52105;BME280;38103;42.776;23.112;2022-12-18T03:39:52;94862.91;;;1.39;100.00
52105;BME280;38103;42.776;23.112;2022-12-18T03:42:41;94866.13;;;1.33;100.00
52105;BME280;38103;42.776;23.112;2022-12-18T03:45:19;94851.09;;;1.27;100.00
52105;BME280;38103;42.776;23.112;2022-12-18T03:55:39;94870.31;;;1.26;100.00
52105;BME280;38103;42.776;23.112;2022-12-18T03:58:07;94872.00;;;1.35;100.00
52105;BME280;38103;42.776;23.112;2022-12-18T04:00:33;94867.44;;;1.37;100.00
52105;BME280;38103;42.776;23.112;2022-12-18T04:03:00;94880.44;;;1.29;100.00
52105;BME280;38103;42.776;23.112;2022-12-18T04:05:28;94886.31;;;1.31;100.00
52105;BME280;38103;42.776;23.112;2022-12-18T04:07:56;94865.06;;;1.17;100.00
52105;BME280;38103;42.776;23.112;2022-12-18T04:10:22;94896.88;;;1.29;100.00
52105;BME280;38103;42.776;23.112;2022-12-18T04:12:47;94908.53;;;1.43;100.00
52105;BME280;38103;42.776;23.112;2022-12-18T04:15:13;94907.53;;;1.36;100.00
52105;BME280;38103;42.776;23.112;2022-12-18T04:17:45;94909.47;;;1.34;100.00
52105;BME280;38103;42.776;23.112;2022-12-18T04:20:12;94862.34;;;1.00;100.00
52105;BME280;38103;42.776;23.112;2022-12-18T04:22:37;94915.63;;;1.33;100.00
52105;BME280;38103;42.776;23.112;2022-12-18T04:25:03;94920.09;;;1.41;100.00
52105;BME280;38103;42.776;23.112;2022-12-18T04:27:28;94916.28;;;1.35;100.00
52105;BME280;38103;42.776;23.112;2022-12-18T04:29:54;94915.69;;;1.41;100.00
52105;BME280;38103;42.776;23.112;2022-12-18T04:32:19;94922.81;;;1.39;100.00
52105;BME280;38103;42.776;23.112;2022-12-18T04:34:45;94927.69;;;1.34;100.00
52105;BME280;38103;42.776;23.112;2022-12-18T04:37:10;94921.19;;;1.38;100.00
52105;BME280;38103;42.776;23.112;2022-12-18T04:39:36;94938.47;;;1.39;100.00
52105;BME280;38103;42.776;23.112;2022-12-18T04:42:01;94941.69;;;1.33;100.00
52105;BME280;38103;42.776;23.112;2022-12-18T04:44:27;94939.69;;;1.27;100.00
52105;BME280;38103;42.776;23.112;2022-12-18T04:46:52;94943.28;;;1.26;100.00
52105;BME280;38103;42.776;23.112;2022-12-18T04:49:17;94927.63;;;1.26;100.00
52105;BME280;38103;42.776;23.112;2022-12-18T04:51:43;94947.13;;;1.21;100.00
52105;BME280;38103;42.776;23.112;2022-12-18T04:54:08;94938.94;;;1.16;100.00
52105;BME280;38103;42.776;23.112;2022-12-18T04:56:33;94943.13;;;1.09;100.00
52105;BME280;38103;42.776;23.112;2022-12-18T04:58:59;94940.47;;;1.00;100.00
52105;BME280;38103;42.776;23.112;2022-12-18T05:01:24;94954.44;;;0.99;100.00
52105;BME280;38103;42.776;23.112;2022-12-18T05:03:51;94951.69;;;1.01;100.00
52105;BME280;38103;42.776;23.112;2022-12-18T05:06:17;94958.53;;;1.02;100.00
52105;BME280;38103;42.776;23.112;2022-12-18T05:08:42;94959.94;;;0.96;100.00
52105;BME280;38103;42.776;23.112;2022-12-18T05:11:09;94948.22;;;0.92;100.00
52105;BME280;38103;42.776;23.112;2022-12-18T05:13:35;94975.00;;;1.03;100.00
52105;BME280;38103;42.776;23.112;2022-12-18T05:16:02;94981.00;;;1.03;100.00
52105;BME280;38103;42.776;23.112;2022-12-18T05:18:28;94994.19;;;1.02;100.00
52105;BME280;38103;42.776;23.112;2022-12-18T05:20:54;94989.78;;;1.02;100.00
52105;BME280;38103;42.776;23.112;2022-12-18T05:23:20;94986.28;;;0.93;100.00
52105;BME280;38103;42.776;23.112;2022-12-18T05:25:51;94990.69;;;0.93;100.00
52105;BME280;38103;42.776;23.112;2022-12-18T05:28:17;94990.16;;;0.89;100.00
52105;BME280;38103;42.776;23.112;2022-12-18T05:30:42;94996.31;;;0.88;100.00
52105;BME280;38103;42.776;23.112;2022-12-18T05:33:09;94999.53;;;0.82;100.00
52105;BME280;38103;42.776;23.112;2022-12-18T05:35:35;95011.28;;;0.86;100.00
52105;BME280;38103;42.776;23.112;2022-12-18T05:38:00;95004.97;;;0.88;100.00
52105;BME280;38103;42.776;23.112;2022-12-18T05:40:25;95002.22;;;0.90;100.00
52105;BME280;38103;42.776;23.112;2022-12-18T05:42:51;95015.25;;;0.90;100.00
52105;BME280;38103;42.776;23.112;2022-12-18T05:45:16;95010.41;;;0.95;100.00
52105;BME280;38103;42.776;23.112;2022-12-18T05:47:42;95013.97;;;0.94;100.00
52105;BME280;38103;42.776;23.112;2022-12-18T05:50:07;95014.13;;;0.93;100.00
52105;BME280;38103;42.776;23.112;2022-12-18T05:52:32;95010.69;;;0.92;100.00
52105;BME280;38103;42.776;23.112;2022-12-18T05:54:58;95010.69;;;0.92;100.00
52105;BME280;38103;42.776;23.112;2022-12-18T05:57:24;95001.16;;;0.83;100.00
52105;BME280;38103;42.776;23.112;2022-12-18T05:59:49;95019.75;;;0.88;100.00
52105;BME280;38103;42.776;23.112;2022-12-18T06:02:15;95035.16;;;0.81;100.00
52105;BME280;38103;42.776;23.112;2022-12-18T06:04:40;95035.72;;;0.75;100.00
52105;BME280;38103;42.776;23.112;2022-12-18T06:07:05;95041.31;;;0.80;100.00
52105;BME280;38103;42.776;23.112;2022-12-18T06:09:31;95041.56;;;0.87;100.00
52105;BME280;38103;42.776;23.112;2022-12-18T06:11:57;95043.63;;;0.83;100.00
52105;BME280;38103;42.776;23.112;2022-12-18T06:14:22;95052.72;;;0.79;100.00
52105;BME280;38103;42.776;23.112;2022-12-18T06:16:50;95053.22;;;0.83;100.00
52105;BME280;38103;42.776;23.112;2022-12-18T06:19:17;95049.00;;;0.82;100.00
52105;BME280;38103;42.776;23.112;2022-12-18T06:21:42;95018.53;;;0.64;100.00
52105;BME280;38103;42.776;23.112;2022-12-18T06:24:08;95064.50;;;0.73;100.00
52105;BME280;38103;42.776;23.112;2022-12-18T06:26:33;95029.81;;;0.54;100.00
52105;BME280;38103;42.776;23.112;2022-12-18T06:28:58;95067.78;;;0.75;100.00
52105;BME280;38103;42.776;23.112;2022-12-18T06:31:25;95067.22;;;0.82;100.00
52105;BME280;38103;42.776;23.112;2022-12-18T06:33:50;95069.16;;;0.80;100.00
52105;BME280;38103;42.776;23.112;2022-12-18T06:36:16;95068.56;;;0.86;100.00
52105;BME280;38103;42.776;23.112;2022-12-18T06:38:43;95076.97;;;0.80;100.00
52105;BME280;38103;42.776;23.112;2022-12-18T06:41:19;95074.63;;;0.76;100.00
52105;BME280;38103;42.776;23.112;2022-12-18T06:43:45;95090.81;;;0.70;100.00
52105;BME280;38103;42.776;23.112;2022-12-18T06:46:11;95094.69;;;0.66;100.00
52105;BME280;38103;42.776;23.112;2022-12-18T06:48:37;95103.06;;;0.60;100.00
52105;BME280;38103;42.776;23.112;2022-12-18T06:51:02;95105.09;;;0.66;100.00
52105;BME280;38103;42.776;23.112;2022-12-18T06:53:28;95105.38;;;0.63;100.00
52105;BME280;38103;42.776;23.112;2022-12-18T06:58:27;95111.25;;;0.65;100.00
52105;BME280;38103;42.776;23.112;2022-12-18T07:00:52;95111.97;;;0.67;100.00
52105;BME280;38103;42.776;23.112;2022-12-18T07:03:17;95117.44;;;0.64;100.00
52105;BME280;38103;42.776;23.112;2022-12-18T07:05:43;95118.38;;;0.63;100.00
52105;BME280;38103;42.776;23.112;2022-12-18T07:08:08;95117.44;;;0.64;100.00
52105;BME280;38103;42.776;23.112;2022-12-18T07:10:39;95116.56;;;0.73;100.00
52105;BME280;38103;42.776;23.112;2022-12-18T07:13:05;95120.72;;;0.66;100.00
52105;BME280;38103;42.776;23.112;2022-12-18T07:15:30;95113.69;;;0.76;100.00
52105;BME280;38103;42.776;23.112;2022-12-18T07:17:55;95123.13;;;0.77;100.00
52105;BME280;38103;42.776;23.112;2022-12-18T07:20:21;95122.44;;;0.75;100.00
52105;BME280;38103;42.776;23.112;2022-12-18T07:22:46;95128.63;;;0.74;100.00
52105;BME280;38103;42.776;23.112;2022-12-18T07:25:11;95125.16;;;0.84;100.00
52105;BME280;38103;42.776;23.112;2022-12-18T07:27:37;95123.78;;;0.89;100.00
52105;BME280;38103;42.776;23.112;2022-12-18T07:30:02;95135.00;;;0.90;100.00
52105;BME280;38103;42.776;23.112;2022-12-18T07:32:30;95139.53;;;0.88;100.00
52105;BME280;38103;42.776;23.112;2022-12-18T07:34:55;95132.69;;;0.87;100.00
52105;BME280;38103;42.776;23.112;2022-12-18T07:37:21;95138.19;;;0.84;100.00
52105;BME280;38103;42.776;23.112;2022-12-18T07:39:46;95144.59;;;0.89;100.00
52105;BME280;38103;42.776;23.112;2022-12-18T07:42:11;95143.09;;;0.87;100.00
52105;BME280;38103;42.776;23.112;2022-12-18T07:44:55;95152.16;;;0.83;100.00
52105;BME280;38103;42.776;23.112;2022-12-18T07:47:20;95156.00;;;0.78;100.00
52105;BME280;38103;42.776;23.112;2022-12-18T07:49:46;95156.13;;;0.87;100.00
52105;BME280;38103;42.776;23.112;2022-12-18T07:52:11;95159.78;;;0.94;100.00
52105;BME280;38103;42.776;23.112;2022-12-18T07:54:37;95149.94;;;0.88;100.00
52105;BME280;38103;42.776;23.112;2022-12-18T07:57:03;95155.69;;;0.92;100.00
52105;BME280;38103;42.776;23.112;2022-12-18T07:59:28;95153.25;;;0.90;100.00
52105;BME280;38103;42.776;23.112;2022-12-18T08:01:53;95158.13;;;0.93;100.00
52105;BME280;38103;42.776;23.112;2022-12-18T08:04:19;95165.00;;;0.94;100.00
52105;BME280;38103;42.776;23.112;2022-12-18T08:06:44;95175.69;;;0.91;100.00
52105;BME280;38103;42.776;23.112;2022-12-18T08:09:10;95135.47;;;0.75;100.00
52105;BME280;38103;42.776;23.112;2022-12-18T08:11:35;95174.25;;;1.07;100.00
52105;BME280;38103;42.776;23.112;2022-12-18T08:14:00;95175.91;;;1.08;100.00
52105;BME280;38103;42.776;23.112;2022-12-18T08:16:26;95176.19;;;1.05;100.00
52105;BME280;38103;42.776;23.112;2022-12-18T08:18:52;95182.50;;;1.02;100.00
52105;BME280;38103;42.776;23.112;2022-12-18T08:21:20;95177.44;;;1.00;100.00
52105;BME280;38103;42.776;23.112;2022-12-18T08:23:49;95183.34;;;1.03;100.00
52105;BME280;38103;42.776;23.112;2022-12-18T08:26:15;95181.13;;;1.08;100.00
52105;BME280;38103;42.776;23.112;2022-12-18T08:28:41;95183.41;;;1.11;100.00
52105;BME280;38103;42.776;23.112;2022-12-18T08:31:07;95173.19;;;0.99;100.00
52105;BME280;38103;42.776;23.112;2022-12-18T08:33:34;95191.19;;;1.21;100.00
52105;BME280;38103;42.776;23.112;2022-12-18T08:36:00;95192.44;;;1.17;100.00
52105;BME280;38103;42.776;23.112;2022-12-18T08:38:27;95174.97;;;0.99;100.00
52105;BME280;38103;42.776;23.112;2022-12-18T08:40:59;95204.34;;;1.19;100.00
52105;BME280;38103;42.776;23.112;2022-12-18T08:43:25;95162.00;;;0.89;100.00
52105;BME280;38103;42.776;23.112;2022-12-18T08:46:09;95207.94;;;1.18;100.00
52105;BME280;38103;42.776;23.112;2022-12-18T08:48:34;95209.84;;;1.16;100.00
52105;BME280;38103;42.776;23.112;2022-12-18T08:50:59;95205.19;;;1.20;100.00
52105;BME280;38103;42.776;23.112;2022-12-18T08:53:26;95204.63;;;1.26;100.00
52105;BME280;38103;42.776;23.112;2022-12-18T08:55:51;95199.63;;;1.33;100.00
52105;BME280;38103;42.776;23.112;2022-12-18T08:58:17;95189.50;;;1.30;100.00
52105;BME280;38103;42.776;23.112;2022-12-18T09:00:43;95149.88;;;1.08;100.00
52105;BME280;38103;42.776;23.112;2022-12-18T09:03:16;95152.84;;;1.13;100.00
52105;BME280;38103;42.776;23.112;2022-12-18T09:05:41;95194.38;;;1.43;100.00
52105;BME280;38103;42.776;23.112;2022-12-18T09:08:07;95174.91;;;1.37;100.00
52105;BME280;38103;42.776;23.112;2022-12-18T09:10:32;95204.00;;;1.61;100.00
52105;BME280;38103;42.776;23.112;2022-12-18T09:12:58;95200.06;;;1.56;100.00
52105;BME280;38103;42.776;23.112;2022-12-18T09:15:24;95210.41;;;1.66;100.00
52105;BME280;38103;42.776;23.112;2022-12-18T09:17:49;95201.56;;;1.59;100.00
52105;BME280;38103;42.776;23.112;2022-12-18T09:20:16;95199.53;;;1.53;100.00
52105;BME280;38103;42.776;23.112;2022-12-18T09:22:41;95194.97;;;1.55;100.00
52105;BME280;38103;42.776;23.112;2022-12-18T09:25:07;95201.16;;;1.54;100.00
52105;BME280;38103;42.776;23.112;2022-12-18T09:27:35;95200.50;;;1.70;100.00
52105;BME280;38103;42.776;23.112;2022-12-18T09:30:01;95214.75;;;1.76;100.00
52105;BME280;38103;42.776;23.112;2022-12-18T09:32:27;95212.78;;;1.78;100.00
52105;BME280;38103;42.776;23.112;2022-12-18T09:34:52;95207.00;;;1.84;100.00
52105;BME280;38103;42.776;23.112;2022-12-18T09:37:18;95208.03;;;1.92;100.00
52105;BME280;38103;42.776;23.112;2022-12-18T09:39:43;95202.00;;;1.91;100.00
52105;BME280;38103;42.776;23.112;2022-12-18T09:42:19;95206.34;;;1.82;98.89
52105;BME280;38103;42.776;23.112;2022-12-18T09:44:49;95196.78;;;1.91;100.00
52105;BME280;38103;42.776;23.112;2022-12-18T09:47:19;95197.63;;;1.92;100.00
52105;BME280;38103;42.776;23.112;2022-12-18T09:49:51;95203.72;;;1.82;98.75
52105;BME280;38103;42.776;23.112;2022-12-18T09:52:33;95201.78;;;1.84;99.62
52105;BME280;38103;42.776;23.112;2022-12-18T09:57:44;95196.38;;;1.96;99.86
52105;BME280;38103;42.776;23.112;2022-12-18T10:00:19;95129.44;;;1.50;100.00
52105;BME280;38103;42.776;23.112;2022-12-18T10:02:46;95198.91;;;2.06;100.00
52105;BME280;38103;42.776;23.112;2022-12-18T10:05:14;95194.78;;;2.03;100.00
52105;BME280;38103;42.776;23.112;2022-12-18T10:10:51;95202.25;;;1.98;98.75
52105;BME280;38103;42.776;23.112;2022-12-18T10:13:41;95184.13;;;1.96;98.12
52105;BME280;38103;42.776;23.112;2022-12-18T10:16:16;95200.88;;;1.94;97.42
52105;BME280;38103;42.776;23.112;2022-12-18T10:21:49;95202.81;;;1.92;97.98
52105;BME280;38103;42.776;23.112;2022-12-18T10:27:18;95203.88;;;1.99;97.38
52105;BME280;38103;42.776;23.112;2022-12-18T10:29:44;95210.19;;;1.96;97.21
52105;BME280;38103;42.776;23.112;2022-12-18T10:32:20;95203.88;;;1.99;95.89
52105;BME280;38103;42.776;23.112;2022-12-18T10:34:51;95207.75;;;1.95;96.55
52105;BME280;38103;42.776;23.112;2022-12-18T10:37:18;95197.31;;;1.95;96.35
52105;BME280;38103;42.776;23.112;2022-12-18T10:39:45;95204.78;;;1.89;96.05
52105;BME280;38103;42.776;23.112;2022-12-18T10:42:17;95202.38;;;1.78;96.93
52105;BME280;38103;42.776;23.112;2022-12-18T10:44:43;95197.69;;;1.82;97.61
52105;BME280;38103;42.776;23.112;2022-12-18T10:47:14;95131.97;;;1.41;97.01
52105;BME280;38103;42.776;23.112;2022-12-18T10:49:49;95195.25;;;1.80;96.62
52105;BME280;38103;42.776;23.112;2022-12-18T10:52:21;95194.69;;;1.76;96.29
52105;BME280;38103;42.776;23.112;2022-12-18T10:54:49;95144.69;;;1.44;95.04
52105;BME280;38103;42.776;23.112;2022-12-18T10:59:55;95195.16;;;1.90;95.23
52105;BME280;38103;42.776;23.112;2022-12-18T11:02:27;95193.06;;;1.94;94.63
52105;BME280;38103;42.776;23.112;2022-12-18T11:04:53;95184.94;;;1.97;93.02
52105;BME280;38103;42.776;23.112;2022-12-18T11:07:18;95188.28;;;1.89;91.62
52105;BME280;38103;42.776;23.112;2022-12-18T11:09:43;95196.94;;;1.89;91.39
52105;BME280;38103;42.776;23.112;2022-12-18T11:12:16;95187.47;;;1.88;92.51
52105;BME280;38103;42.776;23.112;2022-12-18T11:14:47;95193.06;;;1.94;92.60
52105;BME280;38103;42.776;23.112;2022-12-18T11:17:22;95204.19;;;1.96;92.65
52105;BME280;38103;42.776;23.112;2022-12-18T11:19:55;95197.78;;;2.08;93.78
52105;BME280;38103;42.776;23.112;2022-12-18T11:22:25;95199.19;;;2.03;93.66
52105;BME280;38103;42.776;23.112;2022-12-18T11:24:56;95193.13;;;2.02;94.22
52105;BME280;38103;42.776;23.112;2022-12-18T11:27:22;95211.09;;;2.23;94.18
52105;BME280;38103;42.776;23.112;2022-12-18T11:29:50;95211.31;;;2.30;93.77
52105;BME280;38103;42.776;23.112;2022-12-18T11:32:38;95205.50;;;2.37;93.15
52105;BME280;38103;42.776;23.112;2022-12-18T11:35:32;95200.69;;;2.50;92.73
52105;BME280;38103;42.776;23.112;2022-12-18T11:38:04;95206.22;;;2.47;92.37
52105;BME280;38103;42.776;23.112;2022-12-18T11:40:36;95209.50;;;2.49;91.70
52105;BME280;38103;42.776;23.112;2022-12-18T11:43:11;95204.94;;;2.51;91.84
52105;BME280;38103;42.776;23.112;2022-12-18T11:45:43;95204.56;;;2.46;93.01
52105;BME280;38103;42.776;23.112;2022-12-18T11:48:23;95143.56;;;2.20;94.25
52105;BME280;38103;42.776;23.112;2022-12-18T11:50:55;95202.38;;;2.60;91.97
52105;BME280;38103;42.776;23.112;2022-12-18T11:53:21;95206.63;;;2.61;92.86
52105;BME280;38103;42.776;23.112;2022-12-18T11:58:27;95189.94;;;2.53;93.69
52105;BME280;38103;42.776;23.112;2022-12-18T12:03:47;95194.25;;;2.63;92.61
52105;BME280;38103;42.776;23.112;2022-12-18T12:11:58;95194.94;;;2.73;93.33
52105;BME280;38103;42.776;23.112;2022-12-18T12:14:42;95196.91;;;2.71;92.85
52105;BME280;38103;42.776;23.112;2022-12-18T12:20:02;95204.78;;;2.79;93.17
52105;BME280;38103;42.776;23.112;2022-12-18T12:25:25;95203.47;;;2.75;90.22
52105;BME280;38103;42.776;23.112;2022-12-18T12:30:58;95219.13;;;2.75;91.52
52105;BME280;38103;42.776;23.112;2022-12-18T12:38:36;95211.84;;;2.61;91.95
52105;BME280;38103;42.776;23.112;2022-12-18T12:41:08;95213.19;;;2.65;91.95
52105;BME280;38103;42.776;23.112;2022-12-18T12:43:56;95208.56;;;2.59;91.49
52105;BME280;38103;42.776;23.112;2022-12-18T12:46:23;95219.00;;;2.59;91.91
52105;BME280;38103;42.776;23.112;2022-12-18T12:48:57;95217.41;;;2.58;91.62
52105;BME280;38103;42.776;23.112;2022-12-18T12:51:27;95214.41;;;2.52;91.58
52105;BME280;38103;42.776;23.112;2022-12-18T12:53:54;95211.75;;;2.44;91.94
52105;BME280;38103;42.776;23.112;2022-12-18T12:56:21;95216.34;;;2.50;92.25
52105;BME280;38103;42.776;23.112;2022-12-18T13:01:25;95229.03;;;2.45;92.37
52105;BME280;38103;42.776;23.112;2022-12-18T13:09:02;95238.34;;;2.48;93.16
52105;BME280;38103;42.776;23.112;2022-12-18T13:11:47;95235.31;;;2.52;90.59
52105;BME280;38103;42.776;23.112;2022-12-18T13:17:15;95236.72;;;2.47;89.42
52105;BME280;38103;42.776;23.112;2022-12-18T13:19:41;95242.44;;;2.50;88.82
52105;BME280;38103;42.776;23.112;2022-12-18T13:22:21;95242.78;;;2.47;88.11
52105;BME280;38103;42.776;23.112;2022-12-18T13:24:47;95238.75;;;2.34;88.38
52105;BME280;38103;42.776;23.112;2022-12-18T13:30:53;95242.63;;;2.30;88.66
52105;BME280;38103;42.776;23.112;2022-12-18T13:48:32;95266.72;;;2.06;86.04
52105;BME280;38103;42.776;23.112;2022-12-18T13:51:04;95276.44;;;2.04;85.84
52105;BME280;38103;42.776;23.112;2022-12-18T13:53:34;95282.44;;;1.96;85.99
52105;BME280;38103;42.776;23.112;2022-12-18T13:56:03;95291.22;;;1.95;84.77
52105;BME280;38103;42.776;23.112;2022-12-18T13:58:28;95274.53;;;1.87;86.11
52105;BME280;38103;42.776;23.112;2022-12-18T14:00:54;95275.84;;;1.92;85.72
52105;BME280;38103;42.776;23.112;2022-12-18T14:03:25;95281.69;;;1.85;85.41
52105;BME280;38103;42.776;23.112;2022-12-18T14:06:06;95273.75;;;1.77;85.94
52105;BME280;38103;42.776;23.112;2022-12-18T14:08:38;95258.63;;;1.62;85.57
52105;BME280;38103;42.776;23.112;2022-12-18T14:11:05;95284.19;;;1.77;87.46
52105;BME280;38103;42.776;23.112;2022-12-18T14:13:41;95268.06;;;1.63;86.51
52105;BME280;38103;42.776;23.112;2022-12-18T14:16:07;95288.41;;;1.78;86.99
52105;BME280;38103;42.776;23.112;2022-12-18T14:18:52;95287.47;;;1.79;85.76
52105;BME280;38103;42.776;23.112;2022-12-18T14:21:29;95289.41;;;1.77;84.75
52105;BME280;38103;42.776;23.112;2022-12-18T14:24:15;95287.19;;;1.82;85.37
52105;BME280;38103;42.776;23.112;2022-12-18T14:26:41;95282.25;;;1.79;84.68
52105;BME280;38103;42.776;23.112;2022-12-18T14:29:20;95290.28;;;1.86;85.31
52105;BME280;38103;42.776;23.112;2022-12-18T14:31:46;95290.75;;;1.81;83.97
52105;BME280;38103;42.776;23.112;2022-12-18T14:34:28;95291.94;;;1.87;84.09
52105;BME280;38103;42.776;23.112;2022-12-18T14:36:54;95284.19;;;1.77;82.91
52105;BME280;38103;42.776;23.112;2022-12-18T14:39:21;95295.72;;;1.74;84.50
52105;BME280;38103;42.776;23.112;2022-12-18T14:41:48;95235.22;;;1.42;84.54
52105;BME280;38103;42.776;23.112;2022-12-18T14:44:14;95298.34;;;1.74;83.46